Time;durP1;ratioP1;P1;durP2;ratioP2;P2;SDS_P1;SDS_P2;PMS_P1;PMS_P2;Temp;Humidity;BMP_temperature;BMP_pressure;BME280_temperature;BME280_humidity;BME280_pressure;Samples;Min_cycle;Max_cycle;Signal;HPM_P1;HPM_P2
2022/07/16 00:04:15;;;;;;;3.90;1.80;;;;;;;10.97;59.83;100374.52;130202;1268;109054;-73
2022/07/16 00:07:20;;;;;;;3.20;1.60;;;;;;;10.97;59.95;100373.64;130179;1268;108967;-73
2022/07/16 00:10:26;;;;;;;3.10;1.60;;;;;;;10.96;59.83;100376.44;130149;1268;109622;-73
2022/07/16 00:13:31;;;;;;;3.60;1.80;;;;;;;10.98;60.34;100375.89;130223;1268;108752;-73
2022/07/16 00:16:36;;;;;;;3.50;1.40;;;;;;;10.98;60.07;100377.27;130236;1268;108962;-73
2022/07/16 00:19:42;;;;;;;3.10;1.60;;;;;;;11.05;60.31;100377.95;130201;1268;108727;-75
2022/07/16 00:22:47;;;;;;;3.30;1.60;;;;;;;11.08;60.06;100372.73;130200;1268;108659;-75
2022/07/16 00:25:53;;;;;;;3.10;1.70;;;;;;;11.06;60.44;100372.48;130185;1268;108987;-75
2022/07/16 00:28:58;;;;;;;3.10;1.70;;;;;;;11.09;60.38;100369.45;130220;1268;108978;-73
2022/07/16 00:32:04;;;;;;;4.40;1.90;;;;;;;11.11;60.32;100364.26;130250;1268;106849;-74
2022/07/16 00:35:11;;;;;;;2.80;1.60;;;;;;;11.14;60.65;100364.31;130216;1268;107899;-72
2022/07/16 00:38:16;;;;;;;3.30;1.50;;;;;;;11.14;60.49;100362.57;130194;1268;109734;-73
2022/07/16 00:41:21;;;;;;;3.00;1.80;;;;;;;11.12;60.78;100362.09;130248;1266;108649;-72
2022/07/16 00:44:27;;;;;;;3.80;1.60;;;;;;;11.13;60.52;100362.98;130205;1268;108719;-72
2022/07/16 00:47:32;;;;;;;4.00;1.80;;;;;;;11.14;60.72;100361.12;130207;1268;108437;-72
2022/07/16 00:50:39;;;;;;;3.20;1.90;;;;;;;11.15;61.14;100361.55;130269;1268;108748;-73
2022/07/16 00:53:45;;;;;;;3.50;1.90;;;;;;;11.15;61.19;100355.17;130258;1267;108118;-70
2022/07/16 00:56:51;;;;;;;2.80;1.70;;;;;;;11.16;61.10;100351.54;130199;1268;108858;-72
2022/07/16 00:59:56;;;;;;;2.90;1.50;;;;;;;11.16;61.37;100351.14;130194;1267;108666;-72
2022/07/16 01:03:05;;;;;;;3.20;1.60;;;;;;;11.17;61.49;100354.92;130185;1268;107101;-72
2022/07/16 01:06:14;;;;;;;2.80;1.70;;;;;;;11.20;61.42;100351.80;130214;1268;108678;-73
2022/07/16 01:09:21;;;;;;;3.10;1.60;;;;;;;11.27;61.41;100352.73;130266;1268;108944;-74
2022/07/16 01:12:27;;;;;;;2.40;1.60;;;;;;;11.32;61.46;100345.98;130246;1268;108756;-73
2022/07/16 01:15:32;;;;;;;3.20;1.70;;;;;;;11.36;62.00;100347.88;130213;1267;108638;-74
2022/07/16 01:18:38;;;;;;;4.50;1.80;;;;;;;11.40;61.79;100344.98;130205;1268;108789;-76
2022/07/16 01:21:44;;;;;;;3.70;1.70;;;;;;;11.44;61.67;100341.17;130210;1267;108885;-76
2022/07/16 01:24:49;;;;;;;3.00;1.70;;;;;;;11.47;61.87;100338.88;130181;1268;109028;-74
2022/07/16 01:27:55;;;;;;;2.60;1.50;;;;;;;11.52;62.02;100339.11;130223;1268;108576;-73
2022/07/16 01:31:00;;;;;;;3.10;1.70;;;;;;;11.56;61.76;100336.77;130221;1268;108932;-73
2022/07/16 01:37:29;;;;;;;3.50;1.60;;;;;;;11.63;61.84;100334.94;130232;1268;108877;-76
2022/07/16 01:40:34;;;;;;;3.10;1.80;;;;;;;11.68;61.89;100334.10;130186;1268;108824;-76
2022/07/16 01:43:40;;;;;;;4.40;1.60;;;;;;;11.72;61.95;100335.15;130271;1268;108946;-76
2022/07/16 01:46:46;;;;;;;4.50;1.70;;;;;;;11.74;62.20;100332.23;130190;1268;109884;-77
2022/07/16 01:49:51;;;;;;;4.00;1.60;;;;;;;11.75;62.13;100331.56;130172;1268;108843;-76
2022/07/16 01:52:56;;;;;;;2.00;1.30;;;;;;;11.75;62.31;100336.73;130182;1268;107731;-73
2022/07/16 01:56:02;;;;;;;3.10;1.60;;;;;;;11.75;62.43;100333.76;130214;1268;108641;-74
2022/07/16 01:59:07;;;;;;;4.20;2.10;;;;;;;11.79;62.50;100338.27;130253;1268;106844;-74
2022/07/16 02:02:14;;;;;;;1.90;1.30;;;;;;;11.85;62.49;100336.83;130207;1268;108737;-75
2022/07/16 02:05:19;;;;;;;2.20;1.70;;;;;;;11.93;62.54;100330.33;130226;1268;108747;-76
2022/07/16 02:08:24;;;;;;;2.40;1.50;;;;;;;12.01;62.39;100329.61;130255;1268;108849;-76
2022/07/16 02:11:30;;;;;;;3.20;1.60;;;;;;;12.09;62.73;100325.57;130189;1268;108943;-77
2022/07/16 02:14:35;;;;;;;4.50;1.80;;;;;;;12.17;62.78;100322.83;130218;1268;108859;-76
2022/07/16 02:17:41;;;;;;;3.70;1.60;;;;;;;12.23;63.18;100318.33;130212;1268;108523;-75
2022/07/16 02:20:47;;;;;;;2.40;1.60;;;;;;;12.26;63.18;100317.00;130241;1268;108755;-74
2022/07/16 02:23:53;;;;;;;2.60;1.70;;;;;;;12.28;63.05;100314.10;130198;1268;107142;-76
2022/07/16 02:26:59;;;;;;;2.90;1.70;;;;;;;12.31;63.39;100314.05;130194;1268;108228;-76
2022/07/16 02:30:06;;;;;;;2.90;1.50;;;;;;;12.34;63.26;100313.38;130182;1268;108693;-77
2022/07/16 02:33:12;;;;;;;3.00;1.60;;;;;;;12.34;63.54;100312.28;130200;1268;108837;-77
2022/07/16 02:36:18;;;;;;;2.70;1.30;;;;;;;12.35;63.71;100314.08;130261;1268;109069;-76
2022/07/16 02:39:23;;;;;;;2.40;1.20;;;;;;;12.40;63.67;100317.34;130246;1268;109222;-75
2022/07/16 02:42:29;;;;;;;2.40;1.20;;;;;;;12.44;63.53;100313.91;130257;1268;108847;-75
2022/07/16 02:45:36;;;;;;;3.10;1.50;;;;;;;12.51;63.73;100307.39;130258;1268;107989;-75
2022/07/16 02:48:41;;;;;;;3.60;1.70;;;;;;;12.56;64.04;100304.72;130270;1265;108978;-75
2022/07/16 02:51:47;;;;;;;3.00;1.60;;;;;;;12.57;63.79;100297.98;130218;1268;107789;-75
2022/07/16 02:54:52;;;;;;;3.90;1.40;;;;;;;12.59;63.98;100298.69;130214;1268;108907;-74
2022/07/16 02:57:58;;;;;;;2.90;1.60;;;;;;;12.62;64.19;100299.09;130253;1267;108760;-75
2022/07/16 03:01:03;;;;;;;2.10;1.50;;;;;;;12.63;64.05;100296.18;130207;1268;108951;-75
2022/07/16 03:04:08;;;;;;;3.00;1.70;;;;;;;12.65;64.31;100294.55;130237;1268;108723;-76
2022/07/16 03:07:14;;;;;;;2.70;1.80;;;;;;;12.67;64.29;100298.26;130194;1268;108787;-75
2022/07/16 03:10:19;;;;;;;3.70;1.80;;;;;;;12.66;64.23;100303.34;130232;1268;108672;-76
2022/07/16 03:13:24;;;;;;;3.00;2.20;;;;;;;12.61;63.89;100301.80;130195;1268;108865;-73
2022/07/16 03:16:30;;;;;;;2.20;1.50;;;;;;;12.62;64.21;100297.14;130191;1268;108895;-73
2022/07/16 03:19:35;;;;;;;3.40;1.50;;;;;;;12.63;64.60;100305.11;130191;1268;108666;-74
2022/07/16 03:22:46;;;;;;;2.50;1.30;;;;;;;12.62;64.49;100298.95;130230;1268;107187;-75
2022/07/16 03:25:52;;;;;;;3.40;1.70;;;;;;;12.73;64.62;100292.02;130249;1268;108726;-74
2022/07/16 03:28:57;;;;;;;4.00;1.60;;;;;;;12.81;64.58;100298.66;130185;1268;108928;-75
2022/07/16 03:32:02;;;;;;;3.50;1.70;;;;;;;12.81;64.23;100292.41;130190;1268;108986;-74
2022/07/16 03:35:11;;;;;;;4.30;1.70;;;;;;;12.89;64.37;100289.95;130184;1268;108964;-75
2022/07/16 03:41:41;;;;;;;6.30;1.90;;;;;;;13.01;64.59;100292.55;130278;1268;108870;-75
2022/07/16 03:44:46;;;;;;;2.50;1.70;;;;;;;13.04;64.62;100292.77;130287;1268;107751;-75
2022/07/16 03:47:52;;;;;;;3.30;1.50;;;;;;;13.08;64.63;100292.38;130239;1268;108891;-73
2022/07/16 03:50:57;;;;;;;3.20;1.70;;;;;;;13.11;64.77;100291.27;130277;1268;108714;-75
2022/07/16 03:54:03;;;;;;;3.50;1.40;;;;;;;13.14;64.87;100296.73;130218;1268;108763;-76
2022/07/16 03:57:09;;;;;;;4.40;2.00;;;;;;;13.17;64.92;100298.83;130193;1268;108706;-75
2022/07/16 04:00:15;;;;;;;3.40;1.30;;;;;;;13.26;64.80;100301.25;130210;1268;107773;-74
2022/07/16 04:03:21;;;;;;;2.50;1.50;;;;;;;13.38;64.73;100297.67;130210;1268;107875;-75
2022/07/16 04:06:26;;;;;;;3.80;1.90;;;;;;;13.49;64.55;100291.75;130180;1268;108879;-75
2022/07/16 04:09:32;;;;;;;2.70;1.70;;;;;;;13.59;64.63;100290.71;130236;1268;108781;-77
2022/07/16 04:12:37;;;;;;;3.10;1.80;;;;;;;13.65;64.34;100299.10;130195;1268;108891;-76
2022/07/16 04:15:42;;;;;;;3.10;2.00;;;;;;;13.71;64.22;100302.70;130166;1266;108942;-75
2022/07/16 04:18:48;;;;;;;3.50;1.70;;;;;;;13.76;64.13;100299.14;130207;1268;108591;-75
2022/07/16 04:21:53;;;;;;;3.10;1.90;;;;;;;13.82;64.31;100297.59;130250;1268;108880;-74
2022/07/16 04:24:58;;;;;;;5.10;1.90;;;;;;;13.88;64.22;100298.66;130187;1268;108712;-74
2022/07/16 04:28:04;;;;;;;3.00;1.70;;;;;;;13.93;64.29;100295.98;130176;1268;109141;-75
2022/07/16 04:31:10;;;;;;;4.60;1.70;;;;;;;13.97;64.17;100289.67;130227;1268;108795;-75
2022/07/16 04:34:15;;;;;;;3.70;1.80;;;;;;;14.00;64.13;100284.83;130203;1268;108821;-75
2022/07/16 04:37:20;;;;;;;2.90;1.80;;;;;;;14.03;64.30;100285.66;130229;1268;107833;-74
2022/07/16 04:40:25;;;;;;;3.40;1.70;;;;;;;14.06;64.31;100282.02;130239;1268;108780;-74
2022/07/16 04:43:31;;;;;;;3.70;1.40;;;;;;;14.08;64.56;100287.04;130279;1268;108501;-74
2022/07/16 04:46:36;;;;;;;3.20;1.60;;;;;;;14.13;64.58;100289.39;130244;1268;108978;-76
2022/07/16 04:49:42;;;;;;;3.50;1.30;;;;;;;14.20;64.58;100288.95;130285;1268;108759;-76
2022/07/16 04:52:47;;;;;;;2.10;1.40;;;;;;;14.32;64.78;100290.14;130248;1268;108840;-72
2022/07/16 04:55:52;;;;;;;2.70;1.60;;;;;;;14.44;64.65;100282.92;130264;1268;108737;-73
2022/07/16 04:58:57;;;;;;;2.90;1.40;;;;;;;14.58;64.76;100280.88;130229;1268;109743;-73
2022/07/16 05:05:22;;;;;;;3.60;1.60;;;;;;;14.81;64.57;100278.02;130259;1268;108821;-73
2022/07/16 05:08:27;;;;;;;3.10;1.60;;;;;;;14.89;64.70;100275.76;130205;1268;108771;-72
2022/07/16 05:11:33;;;;;;;2.70;1.40;;;;;;;15.01;64.25;100274.29;130224;1268;108145;-71
2022/07/16 05:14:38;;;;;;;4.00;1.60;;;;;;;15.09;64.09;100271.02;130217;1268;108806;-73
2022/07/16 05:17:43;;;;;;;3.20;1.70;;;;;;;15.15;64.22;100266.30;130188;1268;108268;-78
2022/07/16 05:20:49;;;;;;;2.90;1.80;;;;;;;15.22;64.20;100261.49;130207;1268;108727;-79
2022/07/16 05:23:54;;;;;;;2.20;1.50;;;;;;;15.30;63.94;100256.08;130287;1268;108762;-73
2022/07/16 05:27:00;;;;;;;5.40;1.90;;;;;;;15.37;63.94;100257.95;130237;1268;107839;-72
2022/07/16 05:30:07;;;;;;;3.90;1.90;;;;;;;15.46;63.87;100258.63;130198;1268;107719;-77
2022/07/16 05:33:12;;;;;;;4.70;1.70;;;;;;;15.56;63.76;100258.48;130251;1268;108942;-77
2022/07/16 05:36:18;;;;;;;5.30;1.70;;;;;;;15.66;63.72;100256.09;130191;1268;109177;-80
2022/07/16 05:39:24;;;;;;;4.20;1.60;;;;;;;15.78;63.93;100255.33;130284;1268;107491;-75
2022/07/16 05:42:29;;;;;;;2.10;1.60;;;;;;;15.93;63.65;100249.71;130343;1267;108858;-73
2022/07/16 05:45:35;;;;;;;2.90;1.70;;;;;;;16.08;63.69;100256.02;130183;1268;108816;-76
2022/07/16 05:48:40;;;;;;;3.50;2.00;;;;;;;16.19;63.61;100260.05;130226;1268;108741;-75
2022/07/16 05:51:45;;;;;;;4.50;2.30;;;;;;;16.35;63.32;100260.25;130188;1268;108832;-75
2022/07/16 05:54:51;;;;;;;5.60;2.90;;;;;;;16.48;63.34;100261.30;130198;1268;107988;-71
2022/07/16 05:57:56;;;;;;;4.60;2.70;;;;;;;16.64;63.30;100258.89;130211;1268;108845;-72
2022/07/16 06:01:01;;;;;;;4.00;2.40;;;;;;;16.81;63.03;100256.23;130195;1268;108963;-72
2022/07/16 06:04:07;;;;;;;4.90;3.00;;;;;;;17.01;62.98;100253.11;130211;1268;108744;-74
2022/07/16 06:07:13;;;;;;;4.40;3.20;;;;;;;17.21;62.89;100254.92;130168;1268;108888;-74
2022/07/16 06:10:18;;;;;;;3.70;2.00;;;;;;;17.41;62.42;100249.04;130185;1268;108916;-73
2022/07/16 06:13:23;;;;;;;4.30;2.50;;;;;;;17.59;62.10;100249.14;130161;1268;108934;-74
2022/07/16 06:16:29;;;;;;;5.70;2.50;;;;;;;17.78;61.97;100243.55;130280;1268;108815;-74
2022/07/16 06:19:34;;;;;;;4.60;1.80;;;;;;;17.95;61.82;100241.83;130231;1268;108828;-74
2022/07/16 06:22:40;;;;;;;4.60;2.30;;;;;;;18.13;61.70;100239.30;130233;1268;109523;-74
2022/07/16 06:25:45;;;;;;;4.10;1.90;;;;;;;18.29;61.47;100240.93;130180;1268;109451;-73
2022/07/16 06:28:51;;;;;;;3.00;1.60;;;;;;;18.47;61.12;100236.98;130189;1268;108877;-73
2022/07/16 06:31:56;;;;;;;4.60;2.40;;;;;;;18.62;60.57;100235.13;130164;1268;108957;-73
2022/07/16 06:35:02;;;;;;;5.40;2.10;;;;;;;18.78;60.70;100237.36;130204;1268;108206;-74
2022/07/16 06:38:07;;;;;;;5.20;2.00;;;;;;;18.91;60.49;100230.94;130150;1268;108782;-73
2022/07/16 06:41:12;;;;;;;4.10;1.90;;;;;;;19.06;60.30;100229.02;130115;1268;108669;-73
2022/07/16 06:44:19;;;;;;;2.80;1.80;;;;;;;19.17;59.81;100225.66;130179;1268;108720;-74
2022/07/16 06:47:24;;;;;;;4.30;1.80;;;;;;;19.21;59.47;100226.83;130259;1268;108867;-74
2022/07/16 06:50:30;;;;;;;3.40;1.50;;;;;;;19.23;59.35;100223.50;130174;1268;108845;-73
2022/07/16 06:53:38;;;;;;;3.30;1.30;;;;;;;19.22;58.78;100223.58;130215;1268;108774;-75
2022/07/16 06:56:44;;;;;;;2.80;1.50;;;;;;;19.18;58.89;100227.09;130235;1268;108803;-73
2022/07/16 06:59:49;;;;;;;3.30;1.60;;;;;;;19.17;58.18;100224.30;130196;1268;107753;-71
2022/07/16 07:02:55;;;;;;;2.70;1.50;;;;;;;19.15;58.25;100221.64;130206;1270;108767;-75
2022/07/16 07:06:00;;;;;;;4.80;1.30;;;;;;;19.19;57.94;100222.05;130278;1268;108715;-74
2022/07/16 07:09:05;;;;;;;3.80;1.50;;;;;;;19.27;57.94;100221.65;130187;1268;108657;-72
2022/07/16 07:12:11;;;;;;;3.10;1.70;;;;;;;19.36;57.48;100217.67;130212;1268;108964;-74
2022/07/16 07:15:16;;;;;;;3.10;1.40;;;;;;;19.46;57.34;100219.42;130194;1268;108704;-75
2022/07/16 07:18:22;;;;;;;5.20;1.20;;;;;;;19.61;57.28;100214.16;130212;1268;108804;-75
2022/07/16 07:21:27;;;;;;;3.30;1.00;;;;;;;19.86;57.17;100212.52;130194;1268;108759;-72
2022/07/16 07:24:33;;;;;;;2.20;1.00;;;;;;;20.19;56.46;100204.63;130168;1268;108834;-72
2022/07/16 07:27:38;;;;;;;1.80;0.90;;;;;;;20.43;55.85;100201.60;130308;1268;108792;-72
2022/07/16 07:30:44;;;;;;;3.90;1.20;;;;;;;20.64;55.60;100199.66;130165;1269;107643;-72
2022/07/16 07:33:49;;;;;;;1.60;0.90;;;;;;;20.91;54.95;100195.58;130184;1268;108748;-72
2022/07/16 07:36:55;;;;;;;2.30;1.20;;;;;;;21.12;52.91;100199.70;130207;1268;107725;-72
2022/07/16 07:40:02;;;;;;;2.20;1.20;;;;;;;21.21;54.31;100196.81;130242;1268;107693;-74
2022/07/16 07:43:07;;;;;;;2.50;1.30;;;;;;;21.34;53.75;100201.29;130226;1268;107477;-76
2022/07/16 07:46:12;;;;;;;3.10;1.00;;;;;;;21.41;53.65;100200.92;130229;1268;108977;-76
2022/07/16 07:49:18;;;;;;;2.10;1.30;;;;;;;21.46;52.44;100198.26;130253;1268;108798;-76
2022/07/16 07:52:23;;;;;;;3.00;1.00;;;;;;;21.32;51.76;100195.50;130173;1268;108751;-77
2022/07/16 07:55:30;;;;;;;1.60;0.90;;;;;;;21.26;52.90;100193.23;130265;1268;108810;-74
2022/07/16 07:58:36;;;;;;;1.50;1.00;;;;;;;21.23;51.17;100193.30;130229;1268;109720;-74
2022/07/16 08:01:42;;;;;;;2.00;1.00;;;;;;;21.11;52.01;100188.30;130240;1268;108474;-75
2022/07/16 08:04:48;;;;;;;2.60;1.00;;;;;;;21.12;51.56;100187.48;130221;1268;108130;-77
2022/07/16 08:07:53;;;;;;;2.90;1.20;;;;;;;21.11;51.21;100186.16;130212;1268;108652;-75
2022/07/16 08:10:59;;;;;;;3.40;1.10;;;;;;;21.26;51.63;100182.59;130260;1268;108739;-74
2022/07/16 08:14:04;;;;;;;1.90;0.80;;;;;;;21.43;51.29;100184.71;130159;1268;108953;-73
2022/07/16 08:17:10;;;;;;;1.40;0.90;;;;;;;21.50;50.71;100180.96;130268;1268;108899;-73
2022/07/16 08:20:16;;;;;;;2.80;1.00;;;;;;;21.55;49.83;100181.48;130188;1268;108676;-75
2022/07/16 08:26:41;;;;;;;1.40;1.10;;;;;;;21.76;50.39;100174.74;130355;1268;108689;-76
2022/07/16 08:29:47;;;;;;;2.20;1.00;;;;;;;21.84;49.65;100175.32;130247;1268;108623;-76
2022/07/16 08:32:52;;;;;;;2.00;0.90;;;;;;;21.73;49.59;100174.77;130181;1268;108767;-76
2022/07/16 08:35:59;;;;;;;2.10;1.00;;;;;;;21.67;49.33;100171.56;130185;1268;108763;-75
2022/07/16 08:39:05;;;;;;;2.70;1.20;;;;;;;21.60;49.59;100174.48;130503;1267;108735;-77
2022/07/16 08:42:12;;;;;;;3.00;1.30;;;;;;;21.57;49.67;100170.95;130337;1267;108817;-78
2022/07/16 08:45:21;;;;;;;2.20;1.30;;;;;;;21.60;49.69;100167.61;130296;1267;108964;-75
2022/07/16 08:48:27;;;;;;;2.40;1.00;;;;;;;21.68;50.19;100165.33;130279;1267;108597;-80
2022/07/16 08:51:35;;;;;;;2.90;1.30;;;;;;;21.92;50.29;100159.53;130329;1267;108636;-80
2022/07/16 08:54:43;;;;;;;3.20;1.50;;;;;;;22.14;50.50;100149.90;130323;1266;108813;-77
2022/07/16 08:57:49;;;;;;;3.70;1.20;;;;;;;22.28;49.72;100147.67;130347;1267;108748;-79
2022/07/16 09:00:55;;;;;;;2.10;1.00;;;;;;;22.33;48.84;100143.45;130281;1267;108779;-81
2022/07/16 09:04:02;;;;;;;2.90;1.10;;;;;;;22.38;48.19;100149.83;130260;1267;109650;-81
2022/07/16 09:07:08;;;;;;;2.20;1.10;;;;;;;22.38;48.17;100152.20;130261;1267;109712;-78
2022/07/16 09:10:13;;;;;;;3.50;1.00;;;;;;;22.41;47.81;100155.66;129991;1267;458192;-80
2022/07/16 09:13:19;;;;;;;2.30;1.10;;;;;;;22.43;47.84;100146.73;130258;1267;109180;-76
2022/07/16 09:16:31;;;;;;;2.90;0.90;;;;;;;22.47;47.89;100146.67;130267;1267;108605;-78
2022/07/16 09:19:37;;;;;;;2.50;1.20;;;;;;;22.49;46.82;100151.69;130347;1267;108857;-80
2022/07/16 09:22:42;;;;;;;3.00;1.10;;;;;;;22.36;46.72;100148.90;130346;1267;108813;-74
2022/07/16 09:25:53;;;;;;;2.80;1.10;;;;;;;22.28;46.31;100148.44;130374;1267;108682;-76
2022/07/16 09:29:04;;;;;;;4.20;1.20;;;;;;;22.30;46.89;100144.26;130288;1266;108573;-76
2022/07/16 09:32:10;;;;;;;2.90;1.10;;;;;;;22.37;47.20;100146.16;130293;1267;108910;-74
2022/07/16 09:35:18;;;;;;;2.80;1.10;;;;;;;22.45;47.09;100145.98;130262;1267;108734;-77
2022/07/16 09:38:25;;;;;;;2.90;1.20;;;;;;;22.43;46.94;100148.70;130292;1267;108659;-76
2022/07/16 09:41:43;;;;;;;5.20;1.70;;;;;;;22.30;46.68;100145.33;130333;1267;108856;-74
2022/07/16 09:44:49;;;;;;;6.00;2.10;;;;;;;22.05;46.75;100145.30;130366;1267;109087;-76
2022/07/16 09:47:55;;;;;;;3.10;1.30;;;;;;;21.89;46.56;100151.10;130328;1267;108633;-76
2022/07/16 09:51:16;;;;;;;2.90;1.20;;;;;;;21.80;46.26;100142.40;130341;1264;107752;-76
2022/07/16 09:54:30;;;;;;;2.50;1.20;;;;;;;21.78;46.59;100145.73;130249;1267;107159;-75
2022/07/16 09:57:36;;;;;;;2.50;1.00;;;;;;;21.80;46.13;100142.23;130324;1267;108347;-75
2022/07/16 10:00:42;;;;;;;4.10;1.40;;;;;;;21.71;45.29;100143.20;130299;1267;108717;-76
2022/07/16 10:03:48;;;;;;;3.70;1.60;;;;;;;21.62;45.97;100144.36;130223;1267;108720;-75
2022/07/16 10:06:54;;;;;;;3.30;1.30;;;;;;;21.62;46.10;100134.98;130294;1267;108787;-74
2022/07/16 10:10:00;;;;;;;3.20;1.40;;;;;;;21.62;45.95;100134.15;130253;1267;107779;-76
2022/07/16 10:13:07;;;;;;;3.70;1.70;;;;;;;21.73;46.33;100132.77;130296;1266;108885;-74
2022/07/16 10:16:13;;;;;;;5.50;3.20;;;;;;;21.97;46.54;100127.28;130251;1267;108523;-76
2022/07/16 10:19:19;;;;;;;3.50;2.40;;;;;;;22.19;46.16;100121.61;130274;1267;107673;-74
2022/07/16 10:22:30;;;;;;;1.90;1.40;;;;;;;22.28;45.22;100121.79;130340;1267;108985;-75
2022/07/16 10:25:36;;;;;;;6.00;1.70;;;;;;;22.14;45.87;100117.88;130369;1267;108833;-75
2022/07/16 10:28:46;;;;;;;4.50;4.00;;;;;;;22.20;45.86;100119.12;130270;1267;108762;-74
2022/07/16 10:35:32;;;;;;;8.20;5.60;;;;;;;22.21;45.76;100113.96;130328;1267;108829;-72
2022/07/16 10:38:38;;;;;;;11.70;10.60;;;;;;;22.13;45.54;100112.87;130271;1267;107777;-76
2022/07/16 10:41:51;;;;;;;15.10;13.60;;;;;;;22.13;45.75;100110.45;130364;1267;106860;-72
2022/07/16 10:44:56;;;;;;;9.80;5.30;;;;;;;22.27;45.78;100106.53;130268;1267;108750;-76
2022/07/16 10:48:02;;;;;;;3.50;2.80;;;;;;;22.42;45.34;100105.50;130447;1267;108734;-74
2022/07/16 10:51:16;;;;;;;7.00;6.20;;;;;;;22.55;44.68;100099.89;130264;1267;108532;-73
2022/07/16 10:54:22;;;;;;;5.20;3.80;;;;;;;22.70;45.18;100091.58;130268;1267;108027;-74
2022/07/16 10:57:37;;;;;;;3.50;2.90;;;;;;;22.90;44.94;100089.46;130246;1267;109111;-75
2022/07/16 11:00:43;;;;;;;14.80;13.50;;;;;;;23.17;45.25;100081.58;130359;1267;108639;-73
2022/07/16 11:03:53;;;;;;;6.50;5.20;;;;;;;23.50;45.49;100077.43;130291;1267;108772;-75
2022/07/16 11:07:02;;;;;;;8.50;7.70;;;;;;;23.65;45.20;100071.23;130293;1267;107464;-75
2022/07/16 11:10:10;;;;;;;3.20;2.40;;;;;;;23.69;44.96;100064.89;130286;1267;108810;-75
2022/07/16 11:13:17;;;;;;;7.80;6.90;;;;;;;23.59;44.59;100057.73;130385;1267;108599;-75
2022/07/16 11:16:23;;;;;;;3.40;2.30;;;;;;;23.42;44.59;100061.02;130308;1267;108857;-73
2022/07/16 11:19:28;;;;;;;6.90;5.60;;;;;;;23.19;44.20;100065.67;130328;1267;107442;-72
2022/07/16 11:22:33;;;;;;;6.40;4.40;;;;;;;23.08;44.61;100063.20;130249;1267;108747;-74
2022/07/16 11:25:55;;;;;;;2.30;2.10;;;;;;;23.16;44.30;100053.47;130275;1267;109112;-71
2022/07/16 11:29:04;;;;;;;3.30;2.80;;;;;;;23.30;43.90;100048.81;130268;1267;108905;-74
2022/07/16 11:32:14;;;;;;;3.10;2.10;;;;;;;23.39;43.74;100045.10;130330;1267;108089;-74
2022/07/16 11:35:20;;;;;;;5.40;4.90;;;;;;;23.36;43.95;100041.41;130296;1267;108839;-73
2022/07/16 11:38:28;;;;;;;4.10;3.70;;;;;;;23.30;43.97;100036.50;130269;1267;108737;-73
2022/07/16 11:41:36;;;;;;;6.80;5.20;;;;;;;23.30;44.27;100032.24;130311;1267;108827;-72
2022/07/16 11:44:42;;;;;;;3.70;1.70;;;;;;;23.26;44.03;100029.77;130355;1267;107710;-72
2022/07/16 11:47:47;;;;;;;2.70;2.10;;;;;;;23.05;43.60;100028.98;130366;1267;108691;-73
2022/07/16 11:50:54;;;;;;;4.70;4.20;;;;;;;22.93;43.75;100029.70;130281;1267;108781;-73
2022/07/16 11:53:59;;;;;;;7.10;5.30;;;;;;;22.90;43.76;100028.80;130285;1267;108931;-74
2022/07/16 11:57:05;;;;;;;6.90;4.40;;;;;;;22.85;43.64;100026.40;130264;1267;108993;-74
2022/07/16 12:00:13;;;;;;;2.80;2.40;;;;;;;22.87;43.58;100026.83;130383;1267;109822;-74
2022/07/16 12:03:18;;;;;;;7.60;5.00;;;;;;;22.89;43.70;100028.27;130383;1267;107185;-76
2022/07/16 12:06:24;;;;;;;8.90;6.30;;;;;;;22.93;43.78;100024.17;130337;1267;108656;-74
2022/07/16 12:09:37;;;;;;;7.70;5.30;;;;;;;22.81;43.97;100031.65;130265;1267;108891;-74
2022/07/16 12:12:43;;;;;;;2.70;1.60;;;;;;;22.59;43.78;100031.94;130264;1267;108819;-72
2022/07/16 12:15:57;;;;;;;3.90;2.20;;;;;;;22.33;43.44;100032.05;130237;1267;108762;-74
2022/07/16 12:19:11;;;;;;;3.10;1.40;;;;;;;22.02;43.28;100038.77;130291;1267;107909;-73
2022/07/16 12:22:16;;;;;;;4.30;1.80;;;;;;;21.69;43.41;100040.40;130303;1267;109006;-72
2022/07/16 12:25:28;;;;;;;1.90;1.20;;;;;;;21.41;43.23;100047.99;130302;1267;109150;-74
2022/07/16 12:28:34;;;;;;;1.30;0.90;;;;;;;20.98;43.49;100066.29;130250;1267;109553;-73
2022/07/16 12:31:41;;;;;;;3.00;1.10;;;;;;;20.56;44.36;100075.03;130301;1267;108765;-73
2022/07/16 12:34:46;;;;;;;2.90;1.00;;;;;;;20.07;45.71;100094.18;130332;1268;108568;-73
2022/07/16 12:37:52;;;;;;;4.30;1.00;;;;;;;19.48;48.18;100129.14;130304;1267;108838;-71
2022/07/16 12:40:57;;;;;;;3.80;1.00;;;;;;;18.76;53.28;100164.54;130254;1268;109031;-75
2022/07/16 12:44:04;;;;;;;3.80;1.30;;;;;;;18.02;57.31;100181.40;130282;1267;108943;-72
2022/07/16 12:47:10;;;;;;;1.70;1.00;;;;;;;17.31;60.74;100181.42;130258;1267;108652;-73
2022/07/16 12:50:15;;;;;;;2.10;1.10;;;;;;;16.80;60.80;100183.93;130214;1268;108844;-72
2022/07/16 12:53:21;;;;;;;1.90;1.40;;;;;;;16.51;60.25;100186.55;130288;1267;108911;-74
2022/07/16 12:59:51;;;;;;;3.30;1.30;;;;;;;16.24;60.17;100205.54;130225;1268;108742;-74
2022/07/16 13:02:56;;;;;;;2.20;1.30;;;;;;;16.15;61.47;100208.85;130250;1268;108776;-69
2022/07/16 13:06:01;;;;;;;3.10;1.50;;;;;;;16.08;62.07;100208.23;130192;1267;110360;-74
2022/07/16 13:09:08;;;;;;;1.90;1.50;;;;;;;16.08;61.13;100201.45;130263;1267;108827;-72
2022/07/16 13:12:14;;;;;;;2.80;1.30;;;;;;;16.18;61.50;100205.16;130216;1267;108428;-75
2022/07/16 13:15:20;;;;;;;2.20;1.70;;;;;;;16.22;60.28;100203.97;130254;1268;108975;-75
2022/07/16 13:18:25;;;;;;;4.30;1.60;;;;;;;16.30;61.33;100199.76;130568;1268;108292;-73
2022/07/16 13:21:31;;;;;;;2.60;1.50;;;;;;;16.38;61.30;100192.80;130268;1268;108775;-72
2022/07/16 13:24:37;;;;;;;1.70;1.60;;;;;;;16.45;60.78;100192.73;130290;1268;108744;-78
2022/07/16 13:27:42;;;;;;;3.60;2.00;;;;;;;16.61;60.62;100187.98;130380;1268;108821;-72
2022/07/16 13:30:48;;;;;;;2.10;1.50;;;;;;;16.76;60.42;100185.52;130440;1268;110026;-76
2022/07/16 13:33:54;;;;;;;3.30;2.40;;;;;;;16.94;60.85;100178.13;130286;1268;108581;-76
2022/07/16 13:36:59;;;;;;;3.50;1.80;;;;;;;17.18;60.72;100172.02;130311;1267;107039;-74
2022/07/16 13:40:08;;;;;;;1.80;1.50;;;;;;;17.60;60.64;100157.36;130401;1268;108819;-76
2022/07/16 13:43:13;;;;;;;3.80;2.40;;;;;;;18.06;60.60;100147.73;130363;1267;109104;-72
2022/07/16 13:46:19;;;;;;;3.70;2.20;;;;;;;18.47;60.49;100141.29;130342;1268;108593;-73
2022/07/16 13:49:25;;;;;;;2.80;2.20;;;;;;;18.86;60.79;100134.55;130286;1267;108910;-75
2022/07/16 13:52:30;;;;;;;1.50;1.30;;;;;;;19.12;60.34;100133.22;130360;1268;108789;-77
2022/07/16 13:55:36;;;;;;;1.60;1.40;;;;;;;19.22;60.22;100137.64;130310;1268;108737;-76
2022/07/16 13:58:42;;;;;;;2.10;1.60;;;;;;;19.35;60.60;100136.10;130284;1268;107824;-75
2022/07/16 14:01:47;;;;;;;2.60;1.60;;;;;;;19.44;60.52;100136.86;130456;1268;108521;-75
2022/07/16 14:04:53;;;;;;;2.00;1.40;;;;;;;19.68;60.53;100134.48;130282;1267;108658;-71
2022/07/16 14:07:58;;;;;;;2.80;1.30;;;;;;;19.91;60.59;100132.55;130264;1268;108737;-72
2022/07/16 14:11:04;;;;;;;3.10;1.20;;;;;;;19.97;60.36;100137.04;130362;1267;108727;-71
2022/07/16 14:14:09;;;;;;;2.20;1.40;;;;;;;19.94;60.44;100146.06;130169;1268;108900;-71
2022/07/16 14:17:15;;;;;;;3.20;1.50;;;;;;;20.06;60.74;100144.63;130119;1267;108814;-71
2022/07/16 14:20:20;;;;;;;2.10;1.30;;;;;;;19.94;60.35;100154.77;130077;1268;110406;-71
2022/07/16 14:23:29;;;;;;;3.30;1.20;;;;;;;19.89;60.31;100151.92;130128;1268;109590;-73
2022/07/16 14:26:34;;;;;;;2.70;1.20;;;;;;;19.93;60.21;100138.36;130332;1268;108054;-75
2022/07/16 14:29:40;;;;;;;1.60;1.20;;;;;;;19.85;60.06;100133.81;130091;1267;108621;-72